createdAt,value
2022-11-22T00:00:17.468Z,40.78
2022-11-22T00:02:44.440Z,19.38
2022-11-22T00:05:11.742Z,44.33
2022-11-22T00:07:38.784Z,43.33
2022-11-22T00:10:07.014Z,40.35
2022-11-22T00:12:33.598Z,29.38
2022-11-22T00:15:00.173Z,17.77
2022-11-22T00:17:26.765Z,15.23
2022-11-22T00:19:53.312Z,8.43
2022-11-22T00:22:19.831Z,63.35
2022-11-22T00:24:46.389Z,19.13
2022-11-22T00:27:12.921Z,64.97
2022-11-22T00:29:39.441Z,11.50
2022-11-22T00:32:06.031Z,49.58
2022-11-22T00:34:32.564Z,39.22
2022-11-22T00:36:59.114Z,51.65
2022-11-22T00:39:25.680Z,31.33
2022-11-22T00:41:52.186Z,50.42
2022-11-22T00:44:18.727Z,33.25
2022-11-22T00:46:45.281Z,47.25
2022-11-22T00:49:11.919Z,35.72
2022-11-22T00:51:38.549Z,55.13
2022-11-22T00:54:05.257Z,26.48
2022-11-22T00:56:32.116Z,52.28
2022-11-22T00:58:59.062Z,31.88
2022-11-22T01:01:25.737Z,111.75
2022-11-22T01:03:52.281Z,174.85
2022-11-22T01:06:19.449Z,78.32
2022-11-22T01:08:45.965Z,63.20
2022-11-22T01:11:15.317Z,31.20
2022-11-22T01:13:41.873Z,35.42
2022-11-22T01:16:10.436Z,16.38
2022-11-22T01:18:37.767Z,14.80
2022-11-22T01:21:05.986Z,12.68
2022-11-22T01:23:33.637Z,13.18
2022-11-22T01:26:00.420Z,11.65
2022-11-22T01:28:27.575Z,10.27
2022-11-22T01:30:54.802Z,10.70
2022-11-22T01:33:21.708Z,12.98
2022-11-22T01:35:48.588Z,13.63
2022-11-22T01:38:15.141Z,11.85
2022-11-22T01:40:42.061Z,11.00
2022-11-22T01:43:20.905Z,10.23
2022-11-22T01:45:55.297Z,8.07
2022-11-22T01:48:25.453Z,9.40
2022-11-22T01:50:59.276Z,11.52
2022-11-22T01:55:57.325Z,10.55
2022-11-22T01:58:24.964Z,12.10
2022-11-22T02:00:53.426Z,11.75
2022-11-22T02:03:21.740Z,8.48
2022-11-22T02:05:50.173Z,9.00
2022-11-22T02:08:37.852Z,10.93
2022-11-22T02:11:05.664Z,10.02
2022-11-22T02:13:36.126Z,11.27
2022-11-22T02:16:04.288Z,11.35
2022-11-22T02:18:31.109Z,9.63
2022-11-22T02:20:58.595Z,10.80
2022-11-22T02:23:37.315Z,13.70
2022-11-22T02:26:04.170Z,10.45
2022-11-22T02:28:34.756Z,11.70
2022-11-22T02:31:01.285Z,11.93
2022-11-22T02:33:27.821Z,11.85
2022-11-22T02:35:55.156Z,11.55
2022-11-22T02:38:26.086Z,10.25
2022-11-22T02:40:57.052Z,14.15
2022-11-22T02:43:46.592Z,11.73
2022-11-22T02:46:20.465Z,8.52
2022-11-22T02:48:47.954Z,11.75
2022-11-22T02:51:17.079Z,14.73
2022-11-22T02:53:44.631Z,11.65
2022-11-22T02:56:11.221Z,13.68
2022-11-22T02:58:38.019Z,11.07
2022-11-22T03:01:04.879Z,11.35
2022-11-22T03:03:32.896Z,11.45
2022-11-22T03:05:59.563Z,11.95
2022-11-22T03:08:26.075Z,11.43
2022-11-22T03:10:52.580Z,10.73
2022-11-22T03:13:19.131Z,13.27
2022-11-22T03:15:47.588Z,10.10
2022-11-22T03:18:14.071Z,10.43
2022-11-22T03:20:40.610Z,12.45
2022-11-22T03:23:07.208Z,13.95
2022-11-22T03:25:37.979Z,11.30
2022-11-22T03:28:04.673Z,11.73
2022-11-22T03:30:31.240Z,12.00
2022-11-22T03:32:57.776Z,11.65
2022-11-22T03:35:24.317Z,11.10
2022-11-22T03:37:50.876Z,9.18
2022-11-22T03:40:17.379Z,10.80
2022-11-22T03:42:43.923Z,9.43
2022-11-22T03:45:10.848Z,14.73
2022-11-22T03:47:37.368Z,12.63
2022-11-22T03:50:05.092Z,13.32
2022-11-22T03:52:31.602Z,14.02
2022-11-22T03:54:58.101Z,10.23
2022-11-22T03:57:24.664Z,11.13
2022-11-22T03:59:51.150Z,9.73
2022-11-22T04:02:17.652Z,8.82
2022-11-22T04:04:44.170Z,7.22
2022-11-22T04:07:10.734Z,8.57
2022-11-22T04:09:37.343Z,9.68
2022-11-22T04:12:04.113Z,9.85
2022-11-22T04:14:48.912Z,10.10
2022-11-22T04:17:35.354Z,11.43
2022-11-22T04:20:21.812Z,12.10
2022-11-22T04:23:09.139Z,11.65
2022-11-22T04:25:37.896Z,10.02
2022-11-22T04:28:06.557Z,13.82
2022-11-22T04:30:52.452Z,8.77
2022-11-22T04:33:19.079Z,12.35
2022-11-22T04:35:46.268Z,10.93
2022-11-22T04:38:13.654Z,8.50
2022-11-22T04:40:40.556Z,8.05
2022-11-22T04:43:26.377Z,9.82
2022-11-22T04:45:52.996Z,7.82
2022-11-22T04:48:19.766Z,9.23
2022-11-22T04:51:05.144Z,9.75
2022-11-22T04:53:31.695Z,10.27
2022-11-22T04:55:58.290Z,11.82
2022-11-22T04:58:24.867Z,9.90
2022-11-22T05:00:51.911Z,9.25
2022-11-22T05:03:18.700Z,11.65
2022-11-22T05:05:45.555Z,16.02
2022-11-22T05:08:12.829Z,13.23
2022-11-22T05:10:58.250Z,13.38
2022-11-22T05:13:26.444Z,10.65
2022-11-22T05:15:54.024Z,12.15
2022-11-22T05:18:21.805Z,16.13
2022-11-22T05:20:48.476Z,16.17
2022-11-22T05:23:34.116Z,11.90
2022-11-22T05:26:00.688Z,12.48
2022-11-22T05:28:32.589Z,12.82
2022-11-22T05:30:59.392Z,12.52
2022-11-22T05:33:25.954Z,14.60
2022-11-22T05:35:52.476Z,10.98
2022-11-22T05:38:19.042Z,10.88
2022-11-22T05:40:45.612Z,13.73
2022-11-22T05:43:12.128Z,14.55
2022-11-22T05:45:38.665Z,12.82
2022-11-22T05:48:05.330Z,11.52
2022-11-22T05:50:31.838Z,12.23
2022-11-22T05:53:02.911Z,15.02
2022-11-22T05:55:30.648Z,16.67
2022-11-22T05:58:01.463Z,15.48
2022-11-22T06:00:29.818Z,10.90
2022-11-22T06:03:04.159Z,10.40
2022-11-22T06:05:31.123Z,16.08
2022-11-22T06:08:00.109Z,12.25
2022-11-22T06:10:27.242Z,17.23
2022-11-22T06:12:54.204Z,12.25
2022-11-22T06:15:21.948Z,12.43
2022-11-22T06:17:48.517Z,13.27
2022-11-22T06:20:15.550Z,14.57
2022-11-22T06:22:42.185Z,10.98
2022-11-22T06:25:09.528Z,13.95
2022-11-22T06:27:36.078Z,13.00
2022-11-22T06:30:02.596Z,11.27
2022-11-22T06:32:32.629Z,12.32
2022-11-22T06:34:59.160Z,10.60
2022-11-22T06:37:25.717Z,12.43
2022-11-22T06:39:52.264Z,17.08
2022-11-22T06:42:18.792Z,14.10
2022-11-22T06:44:45.309Z,14.85
2022-11-22T06:47:11.885Z,12.77
2022-11-22T06:49:38.394Z,14.85
2022-11-22T06:52:05.294Z,12.65
2022-11-22T06:54:31.802Z,15.90
2022-11-22T06:56:58.329Z,15.57
2022-11-22T06:59:24.840Z,15.85
2022-11-22T07:01:51.568Z,17.00
2022-11-22T07:04:18.144Z,13.38
2022-11-22T07:06:44.701Z,17.35
2022-11-22T07:09:11.734Z,16.35
2022-11-22T07:11:40.323Z,15.18
2022-11-22T07:14:08.807Z,15.80
2022-11-22T07:16:37.424Z,15.40
2022-11-22T07:19:04.863Z,19.67
2022-11-22T07:21:32.453Z,18.10
2022-11-22T07:23:59.019Z,17.58
2022-11-22T07:26:26.363Z,17.10
2022-11-22T07:28:52.901Z,16.15
2022-11-22T07:31:19.602Z,16.00
2022-11-22T07:33:46.345Z,18.05
2022-11-22T07:36:18.228Z,14.30
2022-11-22T07:38:45.649Z,15.93
2022-11-22T07:41:13.135Z,17.85
2022-11-22T07:43:40.073Z,16.90
2022-11-22T07:46:18.378Z,14.07
2022-11-22T07:48:44.866Z,16.50
2022-11-22T07:51:11.477Z,19.42
2022-11-22T07:53:37.996Z,18.15
2022-11-22T07:56:05.985Z,15.82
2022-11-22T07:58:33.853Z,20.48
2022-11-22T08:01:11.317Z,23.10
2022-11-22T08:03:38.949Z,15.23
2022-11-22T08:06:08.531Z,22.33
2022-11-22T08:08:36.289Z,14.93
2022-11-22T08:11:03.238Z,18.15
2022-11-22T08:13:30.981Z,21.00
2022-11-22T08:16:06.132Z,20.23
2022-11-22T08:18:33.704Z,14.05
2022-11-22T08:21:09.072Z,17.55
2022-11-22T08:23:36.403Z,13.30
2022-11-22T08:26:03.382Z,20.10
2022-11-22T08:28:30.348Z,18.40
2022-11-22T08:31:02.692Z,15.27
2022-11-22T08:33:29.295Z,17.55
2022-11-22T08:35:55.850Z,16.63
2022-11-22T08:38:22.358Z,15.00
2022-11-22T08:40:48.907Z,20.48
2022-11-22T08:43:15.484Z,16.15
2022-11-22T08:45:42.060Z,17.48
2022-11-22T08:48:08.617Z,19.60
2022-11-22T08:50:35.155Z,16.15
2022-11-22T08:53:01.950Z,20.35
2022-11-22T08:55:28.544Z,21.02
2022-11-22T08:57:59.055Z,15.55
2022-11-22T09:00:31.736Z,15.30
2022-11-22T09:02:59.832Z,17.90
2022-11-22T09:05:26.610Z,20.40
2022-11-22T09:10:39.868Z,15.05
2022-11-22T09:13:06.484Z,12.15
2022-11-22T09:15:33.084Z,15.90
2022-11-22T09:18:03.608Z,15.60
2022-11-22T09:20:30.323Z,12.00
2022-11-22T09:22:56.869Z,17.65
2022-11-22T09:25:23.380Z,17.83
2022-11-22T09:27:50.065Z,10.73
2022-11-22T09:30:16.786Z,11.15
2022-11-22T09:32:44.864Z,13.52
2022-11-22T09:35:11.472Z,14.43
2022-11-22T09:37:37.977Z,15.15
2022-11-22T09:40:05.041Z,11.98
2022-11-22T09:42:47.463Z,16.08
2022-11-22T09:45:35.290Z,16.50
2022-11-22T09:48:09.885Z,10.35
2022-11-22T09:51:09.496Z,10.65
2022-11-22T09:53:48.342Z,11.55
2022-11-22T09:56:21.520Z,14.95
2022-11-22T09:59:11.633Z,12.18
2022-11-22T10:01:48.651Z,15.68
2022-11-22T10:04:24.859Z,11.50
2022-11-22T10:06:59.297Z,13.30
2022-11-22T10:09:26.482Z,11.20
2022-11-22T10:12:15.525Z,9.63
2022-11-22T10:14:58.709Z,12.38
2022-11-22T10:17:48.002Z,11.00
2022-11-22T10:20:23.534Z,11.45
2022-11-22T10:22:50.754Z,8.52
2022-11-22T10:25:20.617Z,13.05
2022-11-22T10:28:00.801Z,16.38
2022-11-22T10:30:35.858Z,10.90
2022-11-22T10:33:21.774Z,12.27
2022-11-22T10:36:13.131Z,13.85
2022-11-22T10:39:34.103Z,15.02
2022-11-22T10:42:19.683Z,15.13
2022-11-22T10:45:11.692Z,16.67
2022-11-22T10:48:15.127Z,14.93
2022-11-22T10:50:44.468Z,15.02
2022-11-22T10:53:48.394Z,15.38
2022-11-22T10:56:30.259Z,13.98
2022-11-22T10:59:18.100Z,14.95
2022-11-22T11:01:53.576Z,13.55
2022-11-22T11:04:21.167Z,15.57
2022-11-22T11:12:44.605Z,13.70
2022-11-22T11:15:37.702Z,16.85
2022-11-22T11:18:11.808Z,18.88
2022-11-22T11:20:41.840Z,16.88
2022-11-22T11:23:15.149Z,15.55
2022-11-22T11:25:47.443Z,18.60
2022-11-22T11:28:19.462Z,21.65
2022-11-22T11:30:50.967Z,16.65
2022-11-22T11:33:26.668Z,16.33
2022-11-22T11:35:57.043Z,16.00
2022-11-22T11:38:41.583Z,14.80
2022-11-22T11:41:30.596Z,13.25
2022-11-22T11:43:59.624Z,14.70
2022-11-22T11:46:28.950Z,14.73
2022-11-22T11:49:17.641Z,14.73
2022-11-22T11:51:45.255Z,13.55
2022-11-22T11:54:18.727Z,17.35
2022-11-22T11:56:59.578Z,14.05
2022-11-22T11:59:38.026Z,18.35
2022-11-22T12:02:18.096Z,17.20
2022-11-22T12:05:01.411Z,16.15
2022-11-22T12:07:34.068Z,10.73
2022-11-22T12:10:02.388Z,11.05
2022-11-22T12:12:50.865Z,15.25
2022-11-22T12:15:35.510Z,17.98
2022-11-22T12:18:28.131Z,14.05
2022-11-22T12:21:11.846Z,10.82
2022-11-22T12:23:50.883Z,12.35
2022-11-22T12:26:18.595Z,14.32
2022-11-22T12:28:45.184Z,11.65
2022-11-22T12:31:37.226Z,13.38
2022-11-22T12:34:37.959Z,13.02
2022-11-22T12:37:16.927Z,13.40
2022-11-22T12:39:47.643Z,13.07
2022-11-22T12:42:23.450Z,14.35
2022-11-22T12:45:13.827Z,10.43
2022-11-22T12:47:43.596Z,9.55
2022-11-22T12:50:25.832Z,14.73
2022-11-22T12:53:02.765Z,10.50
2022-11-22T12:55:59.110Z,12.63
2022-11-22T12:58:40.671Z,13.07
2022-11-22T13:01:28.931Z,14.02
2022-11-22T13:04:15.621Z,12.70
2022-11-22T13:07:05.520Z,10.02
2022-11-22T13:09:36.292Z,10.07
2022-11-22T13:12:12.169Z,11.95
2022-11-22T13:14:41.551Z,14.60
2022-11-22T13:17:13.107Z,14.85
2022-11-22T13:20:03.138Z,15.20
2022-11-22T13:22:44.726Z,15.90
2022-11-22T13:25:31.983Z,15.50
2022-11-22T13:28:02.453Z,13.70
2022-11-22T13:30:30.714Z,12.27
2022-11-22T13:32:59.927Z,9.90
2022-11-22T13:35:39.055Z,14.00
2022-11-22T13:38:13.658Z,15.43
2022-11-22T13:40:43.586Z,22.67
2022-11-22T13:43:18.006Z,12.68
2022-11-22T13:45:51.852Z,13.07
2022-11-22T13:48:40.040Z,15.35
2022-11-22T13:51:14.894Z,14.88
2022-11-22T13:53:43.988Z,12.52
2022-11-22T13:56:16.709Z,15.93
2022-11-22T13:58:50.709Z,18.63
2022-11-22T14:01:36.079Z,15.40
2022-11-22T14:04:21.095Z,15.60
2022-11-22T14:06:53.730Z,15.90
2022-11-22T14:09:50.584Z,17.80
2022-11-22T14:12:32.009Z,12.75
2022-11-22T14:15:17.305Z,18.92
2022-11-22T14:17:49.863Z,20.30
2022-11-22T14:20:35.110Z,14.50
2022-11-22T14:23:16.832Z,13.23
2022-11-22T14:26:04.408Z,14.63
2022-11-22T14:29:12.869Z,12.60
2022-11-22T14:31:40.561Z,12.60
2022-11-22T14:34:23.657Z,10.82
2022-11-22T14:37:34.485Z,13.80
2022-11-22T14:40:06.711Z,12.35
2022-11-22T14:42:36.498Z,11.00
2022-11-22T14:45:11.830Z,12.70
2022-11-22T14:47:47.598Z,10.98
2022-11-22T14:50:22.171Z,14.48
2022-11-22T14:52:49.594Z,17.52
2022-11-22T14:55:26.247Z,16.95
2022-11-22T14:58:00.712Z,12.43
2022-11-22T15:00:55.852Z,11.18
2022-11-22T15:03:43.251Z,8.32
2022-11-22T15:09:14.436Z,14.98
2022-11-22T15:09:46.659Z,10.02
2022-11-22T15:12:12.543Z,13.07
2022-11-22T15:14:56.640Z,11.40
2022-11-22T15:57:44.674Z,15.35
2022-11-22T16:00:29.583Z,13.07
2022-11-22T16:02:58.350Z,12.43
2022-11-22T16:06:10.132Z,11.95
2022-11-22T16:08:32.938Z,12.57
2022-11-22T16:11:00.038Z,13.60
2022-11-22T16:13:29.428Z,11.20
2022-11-22T16:16:12.705Z,13.48
2022-11-22T16:18:40.512Z,11.35
2022-11-22T16:21:21.464Z,14.43
2022-11-22T16:24:07.163Z,9.50
2022-11-22T16:26:33.752Z,11.93
2022-11-22T16:29:26.287Z,11.77
2022-11-22T16:32:13.959Z,14.00
2022-11-22T16:34:44.316Z,12.57
2022-11-22T16:37:36.396Z,16.60
2022-11-22T16:40:06.120Z,10.30
2022-11-22T16:42:33.152Z,18.50
2022-11-22T16:45:04.051Z,14.45
2022-11-22T16:47:31.111Z,17.90
2022-11-22T16:49:57.747Z,14.98
2022-11-22T16:52:25.065Z,17.00
2022-11-22T16:54:51.615Z,12.88
2022-11-22T16:57:18.282Z,13.95
2022-11-22T16:59:44.921Z,11.80
2022-11-22T17:02:14.167Z,16.40
2022-11-22T17:04:41.390Z,15.43
2022-11-22T17:07:11.899Z,13.10
2022-11-22T17:09:38.673Z,16.42
2022-11-22T17:12:19.717Z,13.55
2022-11-22T17:14:48.466Z,13.95
2022-11-22T17:17:15.187Z,14.13
2022-11-22T17:19:57.019Z,16.45
2022-11-22T17:22:23.586Z,16.30
2022-11-22T17:24:50.088Z,16.58
2022-11-22T17:27:16.590Z,18.25
2022-11-22T17:29:50.468Z,16.88
2022-11-22T17:32:17.724Z,13.25
2022-11-22T17:34:44.267Z,17.88
2022-11-22T17:37:12.549Z,18.05
2022-11-22T17:39:39.814Z,16.75
2022-11-22T17:42:06.782Z,19.30
2022-11-22T17:44:34.203Z,15.20
2022-11-22T17:47:01.034Z,17.13
2022-11-22T17:49:28.559Z,18.10
2022-11-22T17:51:55.496Z,15.85
2022-11-22T17:54:22.130Z,14.35
2022-11-22T17:56:48.712Z,19.55
2022-11-22T17:59:15.235Z,16.20
2022-11-22T18:01:43.188Z,13.75
2022-11-22T18:04:10.156Z,15.30
2022-11-22T18:06:36.771Z,15.73
2022-11-22T18:09:03.484Z,14.85
2022-11-22T18:11:30.307Z,13.45
2022-11-22T18:13:56.835Z,19.45
2022-11-22T18:16:28.346Z,18.55
2022-11-22T18:18:59.045Z,15.95
2022-11-22T18:21:29.213Z,10.57
2022-11-22T18:23:57.645Z,12.55
2022-11-22T18:26:38.890Z,16.40
2022-11-22T18:31:54.290Z,21.48
2022-11-22T18:34:22.098Z,20.50
2022-11-22T18:37:00.723Z,15.75
2022-11-22T18:39:28.906Z,12.95
2022-11-22T18:41:55.677Z,14.57
2022-11-22T18:44:22.200Z,16.15
2022-11-22T18:46:48.832Z,10.43
2022-11-22T18:49:15.698Z,18.23
2022-11-22T18:51:42.393Z,12.75
2022-11-22T18:54:10.427Z,9.68
2022-11-22T18:56:37.966Z,12.10
2022-11-22T18:59:06.259Z,10.00
2022-11-22T19:01:34.666Z,11.30
2022-11-22T19:04:02.032Z,11.98
2022-11-22T19:06:28.983Z,10.88
2022-11-22T19:08:55.557Z,10.65
2022-11-22T19:11:22.217Z,10.35
2022-11-22T19:13:49.105Z,12.50
2022-11-22T19:16:18.428Z,9.05
2022-11-22T19:18:45.452Z,8.82
2022-11-22T19:21:17.836Z,18.55
2022-11-22T19:23:44.588Z,13.27
2022-11-22T19:26:14.327Z,13.45
2022-11-22T19:28:41.672Z,11.40
2022-11-22T19:31:14.630Z,12.85
2022-11-22T19:33:41.238Z,12.00
2022-11-22T19:36:14.364Z,13.60
2022-11-22T19:38:41.896Z,12.88
2022-11-22T19:41:20.449Z,10.70
2022-11-22T19:43:48.375Z,14.85
2022-11-22T19:46:15.567Z,13.00
2022-11-22T19:48:46.895Z,14.73
2022-11-22T19:51:15.603Z,11.35
2022-11-22T19:53:42.876Z,16.92
2022-11-22T19:56:19.464Z,19.90
2022-11-22T19:58:54.176Z,16.02
2022-11-22T20:01:23.170Z,13.63
2022-11-22T20:03:58.363Z,9.93
2022-11-22T20:06:25.446Z,9.40
2022-11-22T20:08:52.153Z,12.93
2022-11-22T20:11:21.044Z,10.05
2022-11-22T20:13:50.305Z,14.02
2022-11-22T20:16:23.280Z,12.55
2022-11-22T20:19:09.571Z,12.75
2022-11-22T20:21:38.709Z,13.52
2022-11-22T20:24:06.555Z,15.88
2022-11-22T20:26:33.718Z,19.58
2022-11-22T20:29:03.312Z,14.95
2022-11-22T20:31:31.528Z,15.15
2022-11-22T20:33:59.564Z,12.38
2022-11-22T20:36:31.822Z,14.57
2022-11-22T20:38:58.708Z,12.20
2022-11-22T20:41:27.594Z,13.88
2022-11-22T20:43:55.414Z,15.25
2022-11-22T20:46:24.760Z,10.55
2022-11-22T20:48:55.825Z,11.98
2022-11-22T20:51:24.620Z,13.60
2022-11-22T20:53:51.664Z,12.15
2022-11-22T20:56:19.213Z,14.43
2022-11-22T20:58:46.076Z,10.98
2022-11-22T21:01:18.324Z,10.57
2022-11-22T21:03:45.312Z,9.07
2022-11-22T21:06:13.275Z,10.65
2022-11-22T21:08:40.078Z,11.00
2022-11-22T21:11:17.879Z,11.88
2022-11-22T21:13:45.627Z,10.98
2022-11-22T21:16:25.045Z,11.43
2022-11-22T21:18:58.020Z,12.18
2022-11-22T21:21:25.725Z,13.43
2022-11-22T21:23:56.647Z,13.32
2022-11-22T21:26:24.855Z,13.77
2022-11-22T21:28:52.789Z,12.70
2022-11-22T21:31:20.540Z,15.45
2022-11-22T21:33:47.508Z,12.00
2022-11-22T21:36:14.625Z,11.55
2022-11-22T21:38:41.266Z,12.90
2022-11-22T21:43:59.512Z,12.63
2022-11-22T21:46:26.186Z,13.63
2022-11-22T21:48:55.657Z,13.48
2022-11-22T21:51:23.160Z,14.45
2022-11-22T21:53:49.662Z,11.45
2022-11-22T21:56:16.171Z,12.85
2022-11-22T21:58:43.037Z,11.77
2022-11-22T22:01:14.070Z,13.82
2022-11-22T22:03:41.088Z,11.90
2022-11-22T22:06:07.722Z,9.48
2022-11-22T22:08:34.388Z,10.95
2022-11-22T22:11:02.558Z,8.82
2022-11-22T22:13:30.917Z,10.40
2022-11-22T22:15:59.292Z,10.88
2022-11-22T22:18:33.402Z,12.50
2022-11-22T22:21:01.424Z,11.02
2022-11-22T22:23:28.533Z,11.50
2022-11-22T22:26:00.048Z,13.23
2022-11-22T22:28:34.626Z,11.00
2022-11-22T22:31:17.195Z,11.45
2022-11-22T22:33:45.622Z,10.82
2022-11-22T22:36:12.239Z,9.95
2022-11-22T22:38:39.174Z,10.10
2022-11-22T22:41:07.455Z,11.77
2022-11-22T22:43:37.164Z,11.73
2022-11-22T22:46:06.613Z,9.32
2022-11-22T22:48:34.308Z,9.15
2022-11-22T22:51:21.749Z,10.98
2022-11-22T22:53:48.634Z,11.13
2022-11-22T22:56:19.392Z,9.05
2022-11-22T22:58:46.081Z,11.07
2022-11-22T23:01:21.442Z,11.50
2022-11-22T23:03:57.263Z,6.57
2022-11-22T23:06:25.338Z,9.40
2022-11-22T23:08:53.393Z,9.93
2022-11-22T23:11:42.945Z,10.05
2022-11-22T23:14:09.757Z,8.13
2022-11-22T23:16:38.221Z,7.47
2022-11-22T23:19:05.634Z,9.45
2022-11-22T23:21:32.362Z,10.85
2022-11-22T23:23:58.990Z,11.73
2022-11-22T23:26:25.628Z,9.38
2022-11-22T23:28:53.493Z,13.05
2022-11-22T23:31:20.837Z,11.30
2022-11-22T23:33:47.837Z,11.18
2022-11-22T23:36:16.702Z,12.55
2022-11-22T23:38:43.784Z,12.55
2022-11-22T23:41:14.511Z,8.68
2022-11-22T23:43:41.869Z,13.18
2022-11-22T23:46:16.092Z,10.65
2022-11-22T23:48:44.311Z,12.15
2022-11-22T23:51:11.295Z,10.32
2022-11-22T23:53:38.164Z,11.70
2022-11-22T23:56:10.126Z,11.15
2022-11-22T23:58:37.169Z,8.57
